createdAt,value
2023-05-05T00:00:48.247Z,14.4
2023-05-05T00:02:50.163Z,14.5
2023-05-05T00:04:52.028Z,14.3
2023-05-05T00:06:53.966Z,14.4
2023-05-05T00:08:59.046Z,14.2
2023-05-05T00:11:00.924Z,14
2023-05-05T00:13:02.855Z,14.2
2023-05-05T00:17:06.633Z,14.2
2023-05-05T00:19:08.524Z,13.9
2023-05-05T00:21:10.424Z,14.1
2023-05-05T00:23:15.436Z,14.2
2023-05-05T00:25:17.366Z,13.9
2023-05-05T00:27:19.271Z,13.8
2023-05-05T00:29:21.154Z,13.8
2023-05-05T00:31:23.157Z,13.9
2023-05-05T00:33:24.993Z,13.9
2023-05-05T00:35:26.923Z,14.1
2023-05-05T00:37:31.962Z,13.3
2023-05-05T00:39:33.868Z,13.7
2023-05-05T00:41:35.782Z,13.8
2023-05-05T00:43:37.673Z,14.1
2023-05-05T00:56:54.785Z,13.9
2023-05-05T00:58:56.681Z,13.7
2023-05-05T01:00:58.615Z,13.9
2023-05-05T01:03:00.650Z,14.2
2023-05-05T01:05:05.585Z,13.7
2023-05-05T01:07:07.466Z,13.8
2023-05-05T01:09:09.376Z,13.7
2023-05-05T01:13:13.319Z,13.6
2023-05-05T01:17:17.006Z,13.9
2023-05-05T01:19:22.064Z,13.6
2023-05-05T01:21:23.981Z,13.8
2023-05-05T01:25:27.845Z,13.6
2023-05-05T01:31:33.574Z,13.6
2023-05-05T01:35:40.515Z,13.7
2023-05-05T01:37:42.429Z,13.8
2023-05-05T01:39:44.347Z,13.8
2023-05-05T01:41:46.266Z,13.8
2023-05-05T01:43:48.183Z,13.7
2023-05-05T01:47:55.146Z,13.9
2023-05-05T01:49:57.032Z,13.8
2023-05-05T01:51:58.961Z,14
2023-05-05T01:58:31.359Z,14.2
2023-05-05T02:14:52.964Z,14.5
2023-05-05T02:25:03.986Z,15.1
2023-05-05T02:27:05.910Z,14.8
2023-05-05T02:29:10.918Z,15.1
2023-05-05T02:31:12.821Z,15.3
2023-05-05T02:33:14.700Z,15.1
2023-05-05T02:35:16.630Z,14.9
2023-05-05T02:47:31.201Z,15.2
2023-05-05T02:48:33.733Z,15
2023-05-05T02:52:37.507Z,14.9
2023-05-05T02:56:44.419Z,14.7
2023-05-05T03:04:52.018Z,14.5
2023-05-05T03:23:12.280Z,14.2
2023-05-05T03:31:23.019Z,13.9
2023-05-05T03:44:40.095Z,14
2023-05-05T03:46:41.988Z,14.1
2023-05-05T03:48:43.894Z,14
2023-05-05T03:50:45.792Z,14
2023-05-05T03:52:50.853Z,14
2023-05-05T03:54:52.724Z,13.9
2023-05-05T03:56:54.666Z,13.8
2023-05-05T03:58:56.577Z,13.8
2023-05-05T04:03:00.487Z,13.8
2023-05-05T04:05:02.280Z,13.8
2023-05-05T04:07:07.310Z,13.6
2023-05-05T04:09:09.264Z,13.5
2023-05-05T04:11:11.121Z,13.4
2023-05-05T04:13:13.078Z,13.5
2023-05-05T04:17:16.851Z,13.5
2023-05-05T04:21:23.790Z,13.6
2023-05-05T04:23:25.706Z,13.5
2023-05-05T04:29:31.432Z,13.5
2023-05-05T04:33:35.229Z,13.7
2023-05-05T04:35:40.266Z,13.6
2023-05-05T04:37:42.179Z,13.5
2023-05-05T04:39:44.075Z,14
2023-05-05T04:40:46.607Z,13.8
2023-05-05T05:19:32.213Z,16.9
2023-05-05T05:23:35.990Z,15.3
2023-05-05T05:33:48.628Z,19.6
2023-05-05T05:35:50.481Z,19.8
2023-05-05T05:42:22.783Z,17.1
2023-05-05T05:44:27.792Z,16.4
2023-05-05T05:46:29.728Z,16.4
2023-05-05T05:48:31.585Z,16.4
2023-05-05T05:50:33.445Z,16.4
2023-05-05T05:52:35.354Z,16.6
2023-05-05T05:54:37.217Z,16.5
2023-05-05T05:56:39.087Z,15.8
2023-05-05T05:58:44.106Z,16.5
2023-05-05T06:00:45.994Z,16.7
2023-05-05T06:02:47.958Z,18.2
2023-05-05T06:04:49.743Z,19.3
2023-05-05T06:06:51.648Z,20
2023-05-05T06:08:53.497Z,20.7
2023-05-05T06:10:55.361Z,19.7
2023-05-05T06:13:00.412Z,18.5
2023-05-05T06:15:02.235Z,18.6
2023-05-05T06:17:04.108Z,20.3
2023-05-05T06:19:05.946Z,21.7
2023-05-05T06:21:07.809Z,21.9
2023-05-05T06:25:11.530Z,20
2023-05-05T06:29:18.356Z,19.9
2023-05-05T06:34:24.530Z,18.3
2023-05-05T06:36:26.412Z,18.6
2023-05-05T06:38:28.207Z,19.6
2023-05-05T06:40:33.229Z,20.2
2023-05-05T06:44:36.865Z,18.9
2023-05-05T06:56:51.065Z,20.8
2023-05-05T07:02:56.593Z,20.8
2023-05-05T07:04:58.374Z,21
2023-05-05T07:09:05.127Z,22.6
2023-05-05T07:23:20.876Z,22
2023-05-05T07:28:26.909Z,23.2
2023-05-05T07:32:30.531Z,23.2
2023-05-05T07:34:32.258Z,23.2
2023-05-05T07:36:37.097Z,22.7
2023-05-05T07:38:38.837Z,23
2023-05-05T07:40:40.597Z,24.1
2023-05-05T07:42:42.345Z,23.5
2023-05-05T07:46:45.824Z,22.4
2023-05-05T07:48:47.560Z,22.1
2023-05-05T07:50:52.529Z,22.5
2023-05-05T07:53:02.410Z,22.5
2023-05-05T07:54:55.967Z,22.1
2023-05-05T07:56:57.697Z,21.8
2023-05-05T08:07:09.638Z,22.3
2023-05-05T08:13:16.467Z,22.8
2023-05-05T08:15:18.129Z,23.1
2023-05-05T08:19:29.332Z,22.5
2023-05-05T08:21:26.508Z,21.6
2023-05-05T08:23:28.276Z,21.2
2023-05-05T08:24:30.743Z,22.6
2023-05-05T08:26:32.470Z,22.4
2023-05-05T08:40:48.549Z,22.5
2023-05-05T08:42:50.296Z,23.6
2023-05-05T08:44:52.006Z,23.5
2023-05-05T08:46:56.973Z,22.4
2023-05-05T08:48:58.604Z,22.1
2023-05-05T08:51:01.962Z,22
2023-05-05T08:53:02.082Z,21.3
2023-05-05T08:55:03.756Z,21.4
2023-05-05T08:57:05.472Z,21.3
2023-05-05T09:01:12.149Z,23
2023-05-05T09:03:13.889Z,22.7
2023-05-05T09:05:15.617Z,22.6
2023-05-05T09:09:19.045Z,21.9
2023-05-05T09:13:22.530Z,21.9
2023-05-05T09:15:27.429Z,22.6
2023-05-05T09:17:29.199Z,22.7
2023-05-05T09:19:30.903Z,21.9
2023-05-05T09:21:59.241Z,21.7
2023-05-05T09:24:07.847Z,21.6
2023-05-05T09:26:02.735Z,21.4
2023-05-05T09:32:11.258Z,20.8
2023-05-05T09:34:12.948Z,21.2
2023-05-05T09:36:14.726Z,21
2023-05-05T09:38:16.484Z,21.2
2023-05-05T09:40:18.279Z,21.3
2023-05-05T09:42:23.196Z,21.3
2023-05-05T09:44:24.961Z,21.4
2023-05-05T09:46:26.962Z,21.5
2023-05-05T09:48:28.726Z,21.6
2023-05-05T09:56:38.971Z,21.5
2023-05-05T10:00:42.528Z,21.6
2023-05-05T10:06:47.939Z,21.3
2023-05-05T10:08:49.698Z,21.5
2023-05-05T10:10:54.683Z,21
2023-05-05T10:12:56.465Z,20.9
2023-05-05T10:16:00.761Z,21
2023-05-05T10:18:06.797Z,21
2023-05-05T10:20:04.275Z,20.8
2023-05-05T10:22:06.070Z,20.6
2023-05-05T10:24:11.018Z,21
2023-05-05T10:26:12.796Z,20.8
2023-05-05T10:38:26.943Z,20.3
2023-05-05T10:40:28.533Z,20.3
2023-05-05T10:42:30.339Z,20.5
2023-05-05T10:44:32.133Z,21.4
2023-05-05T10:46:33.956Z,20.6
2023-05-05T10:50:37.535Z,20.8
2023-05-05T10:52:42.509Z,20.9
2023-05-05T10:56:46.096Z,20.6
2023-05-05T10:58:59.621Z,20.9
2023-05-05T11:00:49.719Z,21
2023-05-05T11:02:51.531Z,21.1
2023-05-05T11:04:53.304Z,21.8
2023-05-05T11:06:58.271Z,20.9
2023-05-05T11:09:00.045Z,20.9
2023-05-05T11:12:04.424Z,21.5
2023-05-05T11:16:07.991Z,21.7
2023-05-05T11:18:09.790Z,21.4
2023-05-05T11:24:19.070Z,21.6
2023-05-05T11:26:20.871Z,21.4
2023-05-05T11:28:22.666Z,21.2
2023-05-05T11:36:32.999Z,18.5
2023-05-05T11:38:34.831Z,17.4
2023-05-05T11:40:36.610Z,17.3
2023-05-05T11:48:47.051Z,16
2023-05-05T11:50:48.878Z,16.1
2023-05-05T11:54:52.596Z,15.1
2023-05-05T12:08:09.476Z,14.1
2023-05-05T12:10:11.434Z,14.4
2023-05-05T12:12:13.211Z,14.2
2023-05-05T12:14:15.120Z,14.1
2023-05-05T12:16:20.188Z,13.7
2023-05-05T12:18:22.050Z,13.8
2023-05-05T12:20:23.946Z,13.6
2023-05-05T12:22:25.832Z,13.8
2023-05-05T12:24:27.740Z,13.9
2023-05-05T12:28:31.561Z,13.9
2023-05-05T12:32:38.508Z,13.9
2023-05-05T12:34:40.401Z,13.7
2023-05-05T12:40:46.094Z,14.1
2023-05-05T12:42:48.003Z,13.6
2023-05-05T12:46:54.938Z,13.8
2023-05-05T12:48:56.853Z,13.9
2023-05-05T12:50:58.721Z,13.8
2023-05-05T12:53:00.658Z,13.7
2023-05-05T12:55:02.562Z,13.6
2023-05-05T12:57:04.423Z,13.5
2023-05-05T12:59:09.495Z,13.7
2023-05-05T13:01:11.397Z,13.6
2023-05-05T13:03:13.415Z,13.5
2023-05-05T13:07:43.790Z,13.7
2023-05-05T13:11:50.763Z,13.8
2023-05-05T13:13:52.623Z,13.8
2023-05-05T13:15:54.543Z,13.7
2023-05-05T13:24:20.817Z,13.4
2023-05-05T13:30:11.033Z,14
2023-05-05T13:32:13.006Z,14.3
2023-05-05T13:34:14.825Z,14
2023-05-05T13:36:16.750Z,14
2023-05-05T13:38:18.667Z,13.6
2023-05-05T13:40:25.227Z,13.6
2023-05-05T13:44:27.493Z,13.6
2023-05-05T13:46:29.432Z,13.8
2023-05-05T13:50:33.245Z,13.9
2023-05-05T13:56:42.085Z,13.7
2023-05-05T13:58:43.971Z,14.2
2023-05-05T13:59:46.509Z,14.4
2023-05-05T14:01:49.972Z,14.3
2023-05-05T14:03:51.886Z,14.4
2023-05-05T14:05:53.747Z,14.5
2023-05-05T14:07:58.771Z,14.3
2023-05-05T14:10:00.656Z,14.6
2023-05-05T14:12:02.579Z,14.7
2023-05-05T14:14:04.458Z,14.5
2023-05-05T14:16:06.393Z,14.8
2023-05-05T14:18:08.404Z,14.9
2023-05-05T14:20:10.194Z,15.2
2023-05-05T14:24:17.106Z,15.2
2023-05-05T14:26:19.040Z,15.2
2023-05-05T14:28:20.933Z,15.3
2023-05-05T14:40:35.476Z,15
2023-05-05T14:42:37.366Z,14.7
2023-05-05T14:48:43.060Z,14.8
2023-05-05T14:55:54.388Z,14.6
2023-05-05T14:57:56.275Z,14.5
2023-05-05T14:59:58.194Z,14.8
2023-05-05T15:02:00.194Z,15.2
2023-05-05T15:04:05.208Z,15.4
2023-05-05T15:08:08.896Z,15.6
2023-05-05T15:10:10.797Z,15.8
2023-05-05T15:12:12.694Z,15.9
2023-05-05T15:14:14.583Z,15.9
2023-05-05T15:16:16.503Z,16
2023-05-05T15:18:21.509Z,16
2023-05-05T15:20:23.396Z,16.4
2023-05-05T15:22:25.280Z,16.3
2023-05-05T15:24:27.171Z,16.4
2023-05-05T15:26:29.061Z,17.4
2023-05-05T15:36:41.644Z,15.4
2023-05-05T15:38:43.502Z,15.8
2023-05-05T15:40:45.374Z,16.2
2023-05-05T15:46:54.215Z,17.1
2023-05-05T15:48:56.068Z,16.8
2023-05-05T15:50:58.206Z,16.3
2023-05-05T16:00:11.366Z,16.5
2023-05-05T16:02:13.258Z,16.4
2023-05-05T16:06:16.980Z,16.4
2023-05-05T16:08:18.860Z,16.4
2023-05-05T16:18:31.346Z,16.2
2023-05-05T16:20:33.235Z,15.9
2023-05-05T16:22:35.101Z,16
2023-05-05T16:24:36.972Z,16.4
2023-05-05T16:26:38.878Z,16.7
2023-05-05T16:28:43.919Z,16.2
2023-05-05T16:34:49.517Z,16.3
2023-05-05T16:36:51.419Z,16.5
2023-05-05T16:38:53.298Z,16.2
2023-05-05T16:40:55.221Z,16.1
2023-05-05T16:43:00.206Z,16.3
2023-05-05T16:47:03.966Z,16.3
2023-05-05T16:49:32.474Z,16.8
2023-05-05T16:51:34.356Z,16.5
2023-05-05T16:53:36.259Z,16.5
2023-05-05T16:55:41.271Z,16.5
2023-05-05T16:57:43.157Z,16.4
2023-05-05T17:05:50.690Z,16
2023-05-05T17:16:03.222Z,16.3
2023-05-05T17:18:05.149Z,16
2023-05-05T17:20:06.950Z,15.9
2023-05-05T17:22:08.820Z,15.8
2023-05-05T17:28:17.552Z,16
2023-05-05T17:30:19.449Z,15.9
2023-05-05T17:36:25.059Z,16.1
2023-05-05T17:40:31.961Z,16.1
2023-05-05T17:49:41.968Z,15.8
2023-05-05T17:51:46.982Z,15.9
2023-05-05T17:53:48.873Z,15.8
2023-05-05T17:55:50.750Z,16
2023-05-05T17:57:52.636Z,15.8
2023-05-05T18:01:56.406Z,15.9
2023-05-05T18:14:10.873Z,15.7
2023-05-05T18:16:12.816Z,15.8
2023-05-05T18:22:21.542Z,15.5
2023-05-05T18:24:23.418Z,15.4
2023-05-05T18:26:25.292Z,15.4
2023-05-05T18:28:27.192Z,15.3
2023-05-05T18:30:29.087Z,15.1
2023-05-05T18:34:35.972Z,15.1
2023-05-05T18:36:37.856Z,15.4
2023-05-05T18:38:39.749Z,15.2
2023-05-05T18:39:43.884Z,15.2
2023-05-05T18:41:44.130Z,15
2023-05-05T18:43:46.023Z,15.1
2023-05-05T18:45:47.959Z,14.9
2023-05-05T18:47:53.021Z,15.2
2023-05-05T18:51:56.679Z,14.9
2023-05-05T18:53:58.588Z,14.8
2023-05-05T18:56:00.474Z,14.7
2023-05-05T18:58:02.356Z,15
2023-05-05T19:00:04.287Z,14.8
2023-05-05T19:02:09.312Z,14.7
2023-05-05T19:04:26.711Z,14.8
2023-05-05T19:06:13.083Z,14.8
2023-05-05T19:08:14.968Z,14.6
2023-05-05T19:10:16.878Z,14.7
2023-05-05T19:14:20.674Z,14.6
2023-05-05T19:16:26.676Z,14.4
2023-05-05T19:18:27.597Z,14.5
2023-05-05T19:22:31.408Z,14.3
2023-05-05T19:24:33.268Z,14.2
2023-05-05T19:26:35.222Z,14
2023-05-05T19:28:37.064Z,14.3
2023-05-05T19:30:42.101Z,14.3
2023-05-05T19:34:45.889Z,14.2
2023-05-05T19:35:48.458Z,14.1
2023-05-05T19:46:01.046Z,14.1
2023-05-05T19:48:03.008Z,14
2023-05-05T19:50:04.852Z,13.7
2023-05-05T19:52:06.751Z,13.8
2023-05-05T19:54:10.199Z,14.3
2023-05-05T19:56:12.053Z,13.6
2023-05-05T19:58:17.071Z,13.5
2023-05-05T20:00:18.995Z,13.7
2023-05-05T20:02:20.920Z,13.7
2023-05-05T20:04:22.789Z,13.9
2023-05-05T20:08:26.595Z,13.7
2023-05-05T20:10:28.463Z,14
2023-05-05T20:12:33.561Z,13.5
2023-05-05T20:14:35.380Z,13.6
2023-05-05T20:16:37.423Z,13.4
2023-05-05T20:18:39.183Z,13.6
2023-05-05T20:20:41.090Z,13.2
2023-05-05T20:28:51.793Z,13.4
2023-05-05T20:35:24.151Z,13.3
2023-05-05T20:39:31.087Z,13.2
2023-05-05T20:41:33.001Z,13.2
2023-05-05T20:43:34.881Z,13.1
2023-05-05T20:45:36.811Z,12.6
2023-05-05T20:47:38.718Z,12.9
2023-05-05T20:49:40.665Z,12.9
2023-05-05T20:55:49.450Z,12.8
2023-05-05T21:01:55.187Z,12.8
2023-05-05T21:03:57.086Z,12.5
2023-05-05T21:08:04.048Z,12.3
2023-05-05T21:14:09.790Z,12.6
2023-05-05T21:27:26.993Z,12.2
2023-05-05T21:29:28.915Z,12.2
2023-05-05T21:31:30.862Z,12.1
2023-05-05T21:33:32.787Z,12.1
2023-05-05T21:35:37.884Z,12.2
2023-05-05T21:39:41.800Z,12.1
2023-05-05T21:41:43.683Z,12.1
2023-05-05T21:43:45.618Z,12
2023-05-05T21:45:48.115Z,12
2023-05-05T21:47:50.060Z,11.9
2023-05-05T21:49:55.132Z,11.9
2023-05-05T21:51:57.039Z,12.1
2023-05-05T21:53:59.047Z,11.8
2023-05-05T21:56:01.102Z,12
2023-05-05T21:58:03.037Z,12.1
2023-05-05T22:00:05.130Z,11.8
2023-05-05T22:02:06.995Z,12.1
2023-05-05T22:04:12.005Z,12.1
2023-05-05T22:06:14.032Z,12.1
2023-05-05T22:08:16.026Z,12.1
2023-05-05T22:10:18.052Z,11.8
2023-05-05T22:23:35.769Z,11.7
2023-05-05T22:25:37.815Z,11.4
2023-05-05T22:27:39.818Z,11.6
2023-05-05T22:29:41.824Z,11.6
2023-05-05T22:31:47.186Z,11.3
2023-05-05T22:33:49.094Z,11.6
2023-05-05T22:35:51.079Z,11.4
2023-05-05T22:37:53.137Z,11.4
2023-05-05T22:39:55.123Z,11.2
2023-05-05T22:41:57.123Z,11.3
2023-05-05T22:43:59.149Z,11.2
2023-05-05T22:46:04.392Z,11.1
2023-05-05T22:50:08.420Z,11.3
2023-05-05T22:54:12.329Z,10.8
2023-05-05T22:58:16.356Z,11.2
2023-05-05T23:02:23.392Z,11.1
2023-05-05T23:04:25.337Z,11
2023-05-05T23:06:27.297Z,11
2023-05-05T23:08:29.302Z,11
2023-05-05T23:10:31.317Z,11.5
2023-05-05T23:12:33.345Z,11.4
2023-05-05T23:14:38.551Z,11.4
2023-05-05T23:16:40.645Z,11.5
2023-05-05T23:18:42.570Z,11.5
2023-05-05T23:19:45.190Z,11.5
2023-05-05T23:21:53.175Z,11.7
2023-05-05T23:23:49.250Z,11.5
2023-05-05T23:25:51.218Z,11.7
2023-05-05T23:32:00.382Z,11.4
2023-05-05T23:34:02.384Z,11.3
2023-05-05T23:38:06.436Z,11.3
2023-05-05T23:40:08.428Z,11.3
2023-05-05T23:42:13.672Z,11.2
2023-05-05T23:44:15.689Z,11.1
2023-05-05T23:50:21.755Z,11.1
2023-05-05T23:56:30.916Z,11.2
2023-05-05T23:58:32.911Z,11
